Time;durP1;ratioP1;P1;durP2;ratioP2;P2;SDS_P1;SDS_P2;PMS_P1;PMS_P2;Temp;Humidity;BMP_temperature;BMP_pressure;BME280_temperature;BME280_humidity;BME280_pressure;Samples;Min_cycle;Max_cycle;Signal;HPM_P1;HPM_P2
2023/09/17 00:00:15;;;;;;;24.10;22.10;;;;;;;;;;4883921;29;20482;-72
2023/09/17 00:02:41;;;;;;;26.50;23.93;;;;;;;;;;4888615;29;20441;-72
2023/09/17 00:05:08;;;;;;;24.87;22.97;;;;;;;;;;4870006;29;20497;-72
2023/09/17 00:07:34;;;;;;;23.00;21.23;;;;;;;;;;4888741;29;20948;-72
2023/09/17 00:10:00;;;;;;;23.90;21.83;;;;;;;;;;4884440;29;20585;-72
2023/09/17 00:12:26;;;;;;;23.43;21.43;;;;;;;;;;4904919;29;20456;-72
2023/09/17 00:14:52;;;;;;;30.63;27.83;;;;;;;;;;4890066;29;20467;-72
2023/09/17 00:17:18;;;;;;;28.73;26.27;;;;;;;;;;4889212;29;20457;-72
2023/09/17 00:19:44;;;;;;;30.90;28.07;;;;;;;;;;4888853;29;20512;-72
2023/09/17 00:22:14;;;;;;;28.03;25.40;;;;;;;;;;4885791;29;20564;-72
2023/09/17 00:24:40;;;;;;;26.57;24.33;;;;;;;;;;4889480;29;20473;-71
2023/09/17 00:27:06;;;;;;;27.00;24.43;;;;;;;;;;4889116;29;20536;-71
2023/09/17 00:29:32;;;;;;;24.90;22.70;;;;;;;;;;4889171;29;20574;-72
2023/09/17 00:31:58;;;;;;;23.70;21.80;;;;;;;;;;4888971;29;20882;-71
2023/09/17 00:34:24;;;;;;;22.07;20.33;;;;;;;;;;4889305;29;20444;-71
2023/09/17 00:36:50;;;;;;;24.93;22.93;;;;;;;;;;4888811;29;20448;-71
2023/09/17 00:39:16;;;;;;;25.93;23.83;;;;;;;;;;4889018;29;21053;-72
2023/09/17 00:41:42;;;;;;;24.93;22.80;;;;;;;;;;4888745;29;20567;-71
2023/09/17 00:44:08;;;;;;;26.67;24.40;;;;;;;;;;4889119;29;20437;-72
2023/09/17 00:46:35;;;;;;;29.33;26.70;;;;;;;;;;4889520;29;20483;-71
2023/09/17 00:49:01;;;;;;;28.87;26.27;;;;;;;;;;4888960;29;20425;-72
2023/09/17 00:51:27;;;;;;;29.37;26.90;;;;;;;;;;4882827;29;20429;-72
2023/09/17 00:53:56;;;;;;;29.47;26.73;;;;;;;;;;4889242;29;20943;-72
2023/09/17 00:56:23;;;;;;;28.40;26.00;;;;;;;;;;4888616;29;20436;-72
2023/09/17 00:58:50;;;;;;;28.37;25.53;;;;;;;;;;4889217;29;20405;-72
2023/09/17 01:01:16;;;;;;;26.67;24.27;;;;;;;;;;4888365;29;20481;-72
2023/09/17 01:03:42;;;;;;;24.97;22.77;;;;;;;;;;4889082;29;20837;-72
2023/09/17 01:06:11;;;;;;;24.33;22.17;;;;;;;;;;4889334;29;20448;-71
2023/09/17 01:08:39;;;;;;;24.50;22.40;;;;;;;;;;4889102;29;20930;-71
2023/09/17 01:11:05;;;;;;;25.53;23.13;;;;;;;;;;4885838;29;20437;-72
2023/09/17 01:13:31;;;;;;;23.43;21.63;;;;;;;;;;4889047;29;20410;-72
2023/09/17 01:15:59;;;;;;;25.33;23.10;;;;;;;;;;4886400;29;20444;-72
2023/09/17 01:18:27;;;;;;;25.87;23.53;;;;;;;;;;4886695;29;20420;-72
2023/09/17 01:21:00;;;;;;;26.60;24.27;;;;;;;;;;4885687;29;20559;-72
2023/09/17 01:23:31;;;;;;;29.47;26.73;;;;;;;;;;4889284;29;20504;-72
2023/09/17 01:25:58;;;;;;;30.47;27.60;;;;;;;;;;4888527;29;20539;-71
2023/09/17 01:28:24;;;;;;;28.70;26.23;;;;;;;;;;4889268;29;20405;-71
2023/09/17 01:30:50;;;;;;;30.27;27.50;;;;;;;;;;4889375;29;20440;-71
2023/09/17 01:33:16;;;;;;;29.77;27.10;;;;;;;;;;4892222;29;20512;-71
2023/09/17 01:35:47;;;;;;;29.97;27.07;;;;;;;;;;4891207;29;20918;-72
2023/09/17 01:38:14;;;;;;;30.00;27.30;;;;;;;;;;4892258;29;20565;-71
2023/09/17 01:40:41;;;;;;;27.90;25.20;;;;;;;;;;4891958;29;20461;-71
2023/09/17 01:43:07;;;;;;;28.80;26.40;;;;;;;;;;4892460;29;20409;-71
2023/09/17 01:45:34;;;;;;;29.57;26.60;;;;;;;;;;4891869;29;20699;-72
2023/09/17 01:48:01;;;;;;;28.23;25.53;;;;;;;;;;4892137;29;20504;-72
2023/09/17 01:50:28;;;;;;;27.17;24.97;;;;;;;;;;4888669;29;20425;-72
2023/09/17 01:52:55;;;;;;;28.73;26.40;;;;;;;;;;4910992;29;21133;-72
2023/09/17 01:55:22;;;;;;;29.00;26.60;;;;;;;;;;4892292;29;20436;-72
2023/09/17 01:57:48;;;;;;;30.50;27.80;;;;;;;;;;4892039;29;20528;-72
2023/09/17 02:00:16;;;;;;;28.87;26.37;;;;;;;;;;4891444;29;20484;-72
2023/09/17 02:02:49;;;;;;;28.90;26.50;;;;;;;;;;4891867;29;20443;-72
2023/09/17 02:05:16;;;;;;;28.80;26.40;;;;;;;;;;4872979;29;20437;-72
2023/09/17 02:07:43;;;;;;;28.27;25.97;;;;;;;;;;4909171;29;20507;-72
2023/09/17 02:10:09;;;;;;;29.67;26.93;;;;;;;;;;4887468;29;20428;-72
2023/09/17 02:12:35;;;;;;;29.03;26.47;;;;;;;;;;4891551;29;20593;-72
2023/09/17 02:15:01;;;;;;;28.90;26.40;;;;;;;;;;4891309;29;20516;-72
2023/09/17 02:17:27;;;;;;;27.40;24.90;;;;;;;;;;4891167;29;20436;-71
2023/09/17 02:19:53;;;;;;;29.63;27.13;;;;;;;;;;4891652;29;20436;-71
2023/09/17 02:22:19;;;;;;;27.93;25.70;;;;;;;;;;4887923;29;20508;-71
2023/09/17 02:24:46;;;;;;;30.00;27.10;;;;;;;;;;4891635;29;20448;-72
2023/09/17 02:27:13;;;;;;;27.73;25.57;;;;;;;;;;4890970;29;20441;-71
2023/09/17 02:29:39;;;;;;;29.40;26.67;;;;;;;;;;4891279;29;20941;-71
2023/09/17 02:32:06;;;;;;;29.80;27.20;;;;;;;;;;4891007;29;20449;-71
2023/09/17 02:34:32;;;;;;;27.63;25.03;;;;;;;;;;4890995;29;20489;-71
2023/09/17 02:36:58;;;;;;;28.13;25.63;;;;;;;;;;4903145;29;20451;-71
2023/09/17 02:39:24;;;;;;;27.00;24.70;;;;;;;;;;4891189;29;20443;-71
2023/09/17 02:41:50;;;;;;;27.87;25.60;;;;;;;;;;4889914;29;20552;-72
2023/09/17 02:44:16;;;;;;;28.63;26.37;;;;;;;;;;4890061;29;20440;-71
2023/09/17 02:46:42;;;;;;;28.90;26.57;;;;;;;;;;4890920;29;20444;-71
2023/09/17 02:49:09;;;;;;;27.83;25.53;;;;;;;;;;4890748;29;20465;-72
2023/09/17 02:51:35;;;;;;;28.43;26.13;;;;;;;;;;4886923;29;20948;-72
2023/09/17 02:54:02;;;;;;;27.03;24.83;;;;;;;;;;4890401;29;20520;-72
2023/09/17 02:56:28;;;;;;;27.90;25.30;;;;;;;;;;4890685;29;20536;-71
2023/09/17 02:58:54;;;;;;;27.90;25.37;;;;;;;;;;4890473;29;20645;-71
2023/09/17 03:01:20;;;;;;;26.07;23.87;;;;;;;;;;4889558;29;20472;-73
2023/09/17 03:03:46;;;;;;;29.03;26.37;;;;;;;;;;4890446;29;20409;-71
2023/09/17 03:06:12;;;;;;;26.60;24.30;;;;;;;;;;4889723;29;20857;-71
2023/09/17 03:08:41;;;;;;;28.10;25.60;;;;;;;;;;4889053;29;20841;-72
2023/09/17 03:11:13;;;;;;;28.00;25.20;;;;;;;;;;4888107;29;20506;-71
2023/09/17 03:13:40;;;;;;;28.07;25.77;;;;;;;;;;4890433;29;20410;-71
2023/09/17 03:16:06;;;;;;;28.80;26.20;;;;;;;;;;4889645;29;20811;-71
2023/09/17 03:18:32;;;;;;;29.67;27.07;;;;;;;;;;4890196;29;20419;-72
2023/09/17 03:20:58;;;;;;;26.03;23.83;;;;;;;;;;4884622;29;20512;-71
2023/09/17 03:23:24;;;;;;;29.10;26.70;;;;;;;;;;4890065;29;20832;-71
2023/09/17 03:25:51;;;;;;;29.50;27.20;;;;;;;;;;4889341;29;20429;-71
2023/09/17 03:28:17;;;;;;;28.27;25.87;;;;;;;;;;4889965;29;20516;-71
2023/09/17 03:30:43;;;;;;;26.73;24.43;;;;;;;;;;4890084;29;20520;-71
2023/09/17 03:33:09;;;;;;;28.77;26.30;;;;;;;;;;4889754;29;20467;-72
2023/09/17 03:35:35;;;;;;;29.87;27.47;;;;;;;;;;4889614;29;20428;-72
2023/09/17 03:38:01;;;;;;;30.40;27.83;;;;;;;;;;4889537;29;20428;-72
2023/09/17 03:40:27;;;;;;;29.17;26.80;;;;;;;;;;4889284;29;20456;-72
2023/09/17 03:42:53;;;;;;;30.77;27.67;;;;;;;;;;4890935;29;20438;-72
2023/09/17 03:45:19;;;;;;;29.93;27.00;;;;;;;;;;4889541;29;21084;-72
2023/09/17 03:47:47;;;;;;;31.67;28.97;;;;;;;;;;4907674;29;20587;-71
2023/09/17 03:50:15;;;;;;;29.60;26.80;;;;;;;;;;4887518;29;20429;-71
2023/09/17 03:52:43;;;;;;;27.57;25.27;;;;;;;;;;4887552;29;20440;-72
2023/09/17 03:55:09;;;;;;;29.50;26.60;;;;;;;;;;4888132;29;20436;-72
2023/09/17 03:57:36;;;;;;;29.77;27.17;;;;;;;;;;4889275;29;20452;-72
2023/09/17 04:00:06;;;;;;;31.20;28.40;;;;;;;;;;4889033;29;20469;-72
2023/09/17 04:02:35;;;;;;;29.40;26.83;;;;;;;;;;4889499;29;20996;-71
2023/09/17 04:05:08;;;;;;;30.80;27.97;;;;;;;;;;4889165;29;20440;-71
2023/09/17 04:07:34;;;;;;;31.00;28.10;;;;;;;;;;4904272;29;20998;-72
2023/09/17 04:10:00;;;;;;;31.57;28.83;;;;;;;;;;4887290;29;20473;-72
2023/09/17 04:12:26;;;;;;;30.67;28.17;;;;;;;;;;4889288;29;20523;-72
2023/09/17 04:14:53;;;;;;;30.17;27.63;;;;;;;;;;4889502;29;21261;-71
2023/09/17 04:17:20;;;;;;;28.43;26.03;;;;;;;;;;4888941;29;20441;-72
2023/09/17 04:19:46;;;;;;;29.73;27.17;;;;;;;;;;4889597;29;20432;-71
2023/09/17 04:22:11;;;;;;;29.83;27.47;;;;;;;;;;4885637;29;20567;-71
2023/09/17 04:24:38;;;;;;;29.30;26.70;;;;;;;;;;4888942;29;20602;-71
2023/09/17 04:27:04;;;;;;;31.57;28.83;;;;;;;;;;4888625;29;20600;-72
2023/09/17 04:29:30;;;;;;;32.23;29.40;;;;;;;;;;4889079;29;20433;-71
2023/09/17 04:31:56;;;;;;;32.30;29.40;;;;;;;;;;4888660;29;21088;-72
2023/09/17 04:34:22;;;;;;;34.70;31.40;;;;;;;;;;4888705;29;20660;-73
2023/09/17 04:36:48;;;;;;;37.10;33.73;;;;;;;;;;4888511;29;20529;-73
2023/09/17 04:39:16;;;;;;;34.87;31.50;;;;;;;;;;4888686;29;20441;-72
2023/09/17 04:41:45;;;;;;;35.73;32.30;;;;;;;;;;4888929;29;20495;-71
2023/09/17 04:44:12;;;;;;;34.13;31.10;;;;;;;;;;4888480;29;20445;-73
2023/09/17 04:46:40;;;;;;;34.37;31.33;;;;;;;;;;4889136;29;20452;-72
2023/09/17 04:49:07;;;;;;;36.47;33.20;;;;;;;;;;4888611;29;20433;-72
2023/09/17 04:51:33;;;;;;;36.30;32.90;;;;;;;;;;4885315;29;20984;-73
2023/09/17 04:53:59;;;;;;;36.23;32.63;;;;;;;;;;4888685;29;20437;-72
2023/09/17 04:56:25;;;;;;;37.37;33.50;;;;;;;;;;4888318;29;21005;-72
2023/09/17 04:58:51;;;;;;;34.43;31.43;;;;;;;;;;4888643;29;20496;-73
2023/09/17 05:01:17;;;;;;;35.87;32.47;;;;;;;;;;4887718;29;20839;-72
2023/09/17 05:03:43;;;;;;;37.43;34.00;;;;;;;;;;4888790;29;20501;-73
2023/09/17 05:06:09;;;;;;;38.97;35.37;;;;;;;;;;4889627;29;20535;-74
2023/09/17 05:08:35;;;;;;;39.43;35.67;;;;;;;;;;4892497;29;20413;-73
2023/09/17 05:11:03;;;;;;;40.10;36.30;;;;;;;;;;4891666;29;20705;-73
2023/09/17 05:13:29;;;;;;;39.67;36.07;;;;;;;;;;4892337;29;20435;-73
2023/09/17 05:15:55;;;;;;;38.97;34.97;;;;;;;;;;4891861;29;20440;-72
2023/09/17 05:18:21;;;;;;;40.30;36.00;;;;;;;;;;4892120;29;20905;-72
2023/09/17 05:20:48;;;;;;;41.10;37.20;;;;;;;;;;4888791;29;20749;-72
2023/09/17 05:23:14;;;;;;;40.57;36.63;;;;;;;;;;4890634;29;20488;-73
2023/09/17 05:25:40;;;;;;;40.90;36.97;;;;;;;;;;4891812;29;20451;-73
2023/09/17 05:28:07;;;;;;;37.07;33.67;;;;;;;;;;4891785;29;20769;-72
2023/09/17 05:30:34;;;;;;;41.73;37.33;;;;;;;;;;4891462;29;21168;-72
2023/09/17 05:33:00;;;;;;;40.67;36.87;;;;;;;;;;4891885;29;20443;-73
2023/09/17 05:35:26;;;;;;;41.60;37.20;;;;;;;;;;4891653;29;21162;-73
2023/09/17 05:37:55;;;;;;;40.00;36.30;;;;;;;;;;4891724;29;20455;-73
2023/09/17 05:40:21;;;;;;;39.17;35.53;;;;;;;;;;4891566;29;20436;-73
2023/09/17 05:42:47;;;;;;;40.30;36.20;;;;;;;;;;4891513;29;20811;-73
2023/09/17 05:45:13;;;;;;;39.17;35.50;;;;;;;;;;4891552;29;20503;-72
2023/09/17 05:47:41;;;;;;;40.37;36.53;;;;;;;;;;4891387;29;20471;-73
2023/09/17 05:50:07;;;;;;;41.10;36.93;;;;;;;;;;4888984;29;20877;-73
2023/09/17 05:52:33;;;;;;;41.50;37.57;;;;;;;;;;4889892;29;20437;-73
2023/09/17 05:55:00;;;;;;;39.67;35.87;;;;;;;;;;4891300;29;20578;-73
2023/09/17 05:57:27;;;;;;;41.10;37.17;;;;;;;;;;4891412;29;20437;-72
2023/09/17 05:59:53;;;;;;;38.17;34.47;;;;;;;;;;4891192;29;20540;-72
2023/09/17 06:02:18;;;;;;;39.43;35.60;;;;;;;;;;4891439;29;20648;-72
2023/09/17 06:04:47;;;;;;;42.80;38.90;;;;;;;;;;4891387;29;20433;-73
2023/09/17 06:07:14;;;;;;;44.37;40.13;;;;;;;;;;4889678;29;20477;-72
2023/09/17 06:09:40;;;;;;;42.67;38.57;;;;;;;;;;4891205;29;20440;-73
2023/09/17 06:12:06;;;;;;;42.90;38.77;;;;;;;;;;4904010;29;20458;-72
2023/09/17 06:14:33;;;;;;;39.93;35.97;;;;;;;;;;4890251;29;20930;-72
2023/09/17 06:16:59;;;;;;;42.03;36.17;;;;;;;;;;4890239;29;20445;-72
2023/09/17 06:19:27;;;;;;;41.77;37.87;;;;;;;;;;4890291;29;20789;-72
2023/09/17 06:21:53;;;;;;;39.73;36.10;;;;;;;;;;4887255;29;20483;-73
2023/09/17 06:24:19;;;;;;;41.57;37.43;;;;;;;;;;4890758;29;20500;-73
2023/09/17 06:26:45;;;;;;;39.17;35.67;;;;;;;;;;4890248;29;20938;-72
2023/09/17 06:29:11;;;;;;;40.83;37.00;;;;;;;;;;4890539;29;20483;-72
2023/09/17 06:31:37;;;;;;;41.53;37.53;;;;;;;;;;4882212;29;20533;-73
2023/09/17 06:34:03;;;;;;;44.07;39.50;;;;;;;;;;4890558;29;20543;-72
2023/09/17 06:36:29;;;;;;;43.37;39.23;;;;;;;;;;4888214;29;20453;-72
2023/09/17 06:38:55;;;;;;;43.37;38.97;;;;;;;;;;4888950;29;20457;-73
2023/09/17 06:41:21;;;;;;;41.50;37.47;;;;;;;;;;4892292;29;20753;-73
2023/09/17 06:43:47;;;;;;;41.40;37.40;;;;;;;;;;4890140;29;20441;-72
2023/09/17 06:46:13;;;;;;;42.77;38.30;;;;;;;;;;4891441;29;20805;-72
2023/09/17 06:48:39;;;;;;;37.33;33.77;;;;;;;;;;4890220;29;20452;-72
2023/09/17 06:51:06;;;;;;;35.90;32.50;;;;;;;;;;4889053;29;20453;-72
2023/09/17 06:53:32;;;;;;;34.87;31.77;;;;;;;;;;4889792;29;20504;-72
2023/09/17 06:55:58;;;;;;;30.87;28.27;;;;;;;;;;4889560;29;20799;-73
2023/09/17 06:58:25;;;;;;;30.20;27.73;;;;;;;;;;4889518;29;20963;-73
2023/09/17 07:00:51;;;;;;;27.80;25.50;;;;;;;;;;4886083;29;20492;-73
2023/09/17 07:03:17;;;;;;;27.70;25.13;;;;;;;;;;4889493;29;20859;-72
2023/09/17 07:05:43;;;;;;;25.97;23.87;;;;;;;;;;4887256;29;20468;-72
2023/09/17 07:08:09;;;;;;;27.20;25.00;;;;;;;;;;4890227;29;20445;-72
2023/09/17 07:10:35;;;;;;;24.63;22.73;;;;;;;;;;4884968;29;20480;-73
2023/09/17 07:13:01;;;;;;;26.10;24.10;;;;;;;;;;4888624;29;20424;-73
2023/09/17 07:15:27;;;;;;;24.97;23.00;;;;;;;;;;4888475;29;20445;-72
2023/09/17 07:17:54;;;;;;;26.63;24.60;;;;;;;;;;4889568;29;20897;-72
2023/09/17 07:20:20;;;;;;;26.17;24.20;;;;;;;;;;4888340;29;20484;-71
2023/09/17 07:22:48;;;;;;;28.33;26.10;;;;;;;;;;4889995;29;20413;-73
2023/09/17 07:25:14;;;;;;;29.47;26.80;;;;;;;;;;4887882;29;20448;-73
2023/09/17 07:27:40;;;;;;;27.00;24.90;;;;;;;;;;4889870;29;20444;-74
2023/09/17 07:30:06;;;;;;;25.33;23.53;;;;;;;;;;4887707;29;20429;-73
2023/09/17 07:32:32;;;;;;;24.27;22.37;;;;;;;;;;4889608;29;20413;-72
2023/09/17 07:35:02;;;;;;;24.33;22.53;;;;;;;;;;4889228;29;20425;-72
2023/09/17 07:37:28;;;;;;;19.60;18.20;;;;;;;;;;4887498;29;20810;-72
2023/09/17 07:39:56;;;;;;;17.73;16.40;;;;;;;;;;4888835;29;20437;-72
2023/09/17 07:42:22;;;;;;;15.50;14.43;;;;;;;;;;4875288;29;20841;-72
2023/09/17 07:44:48;;;;;;;15.43;14.10;;;;;;;;;;4880303;29;21027;-73
2023/09/17 07:47:14;;;;;;;9.80;9.40;;;;;;;;;;4880061;29;20952;-74
2023/09/17 07:49:40;;;;;;;7.47;6.97;;;;;;;;;;4880282;29;20542;-73
2023/09/17 07:52:06;;;;;;;6.10;5.90;;;;;;;;;;4881349;29;21288;-73
2023/09/17 07:54:39;;;;;;;5.50;5.40;;;;;;;;;;4885178;29;20452;-74
2023/09/17 07:57:05;;;;;;;6.30;5.97;;;;;;;;;;4886470;29;20444;-76
2023/09/17 07:59:31;;;;;;;5.73;5.53;;;;;;;;;;4880365;29;20445;-74
2023/09/17 08:01:58;;;;;;;5.50;5.30;;;;;;;;;;4881253;29;20523;-73
2023/09/17 08:04:24;;;;;;;5.80;5.53;;;;;;;;;;4886013;29;20924;-73
2023/09/17 08:06:50;;;;;;;5.73;5.40;;;;;;;;;;4884100;29;20474;-73
2023/09/17 08:09:17;;;;;;;5.53;5.33;;;;;;;;;;4876420;29;20456;-74
2023/09/17 08:11:43;;;;;;;5.07;4.93;;;;;;;;;;4881701;29;20803;-74
2023/09/17 08:14:09;;;;;;;5.77;5.47;;;;;;;;;;4888006;29;20774;-73
2023/09/17 08:16:35;;;;;;;5.90;5.60;;;;;;;;;;4888510;29;20468;-73
2023/09/17 08:19:01;;;;;;;4.80;4.70;;;;;;;;;;4888634;29;20979;-73
2023/09/17 08:21:28;;;;;;;5.87;5.40;;;;;;;;;;4887714;29;20487;-72
2023/09/17 08:23:54;;;;;;;4.93;4.83;;;;;;;;;;4888212;29;20457;-74
2023/09/17 08:26:21;;;;;;;5.27;4.87;;;;;;;;;;4888758;29;20548;-74
2023/09/17 08:28:49;;;;;;;5.57;5.27;;;;;;;;;;4888388;29;20420;-73
2023/09/17 08:31:16;;;;;;;5.30;5.00;;;;;;;;;;4888066;29;20513;-73
2023/09/17 08:33:42;;;;;;;4.47;4.37;;;;;;;;;;4888374;29;20459;-73
2023/09/17 08:36:09;;;;;;;5.00;4.80;;;;;;;;;;4888520;29;20464;-73
2023/09/17 08:38:36;;;;;;;5.33;5.13;;;;;;;;;;4888305;29;20842;-73
2023/09/17 08:41:02;;;;;;;5.30;5.07;;;;;;;;;;4886147;29;20766;-73
2023/09/17 08:43:28;;;;;;;4.87;4.77;;;;;;;;;;4892395;29;20676;-72
2023/09/17 08:45:54;;;;;;;4.77;4.53;;;;;;;;;;4891437;29;21005;-72
2023/09/17 08:48:22;;;;;;;4.63;4.43;;;;;;;;;;4892294;29;20901;-73
2023/09/17 08:50:50;;;;;;;4.77;4.57;;;;;;;;;;4892098;29;21060;-73
2023/09/17 08:53:18;;;;;;;4.70;4.60;;;;;;;;;;4892301;29;20428;-73
2023/09/17 08:55:45;;;;;;;4.77;4.77;;;;;;;;;;4892415;29;20441;-73
2023/09/17 08:58:18;;;;;;;4.77;4.47;;;;;;;;;;4892124;29;20451;-72
2023/09/17 09:00:49;;;;;;;4.77;4.67;;;;;;;;;;4889164;29;20491;-72
2023/09/17 09:03:15;;;;;;;5.30;5.10;;;;;;;;;;4883036;29;20614;-73
2023/09/17 09:05:43;;;;;;;5.03;4.90;;;;;;;;;;4891621;29;21159;-73
2023/09/17 09:08:10;;;;;;;5.00;4.93;;;;;;;;;;4891676;29;20443;-72
2023/09/17 09:10:36;;;;;;;4.80;4.60;;;;;;;;;;4881397;29;20807;-71
2023/09/17 09:13:04;;;;;;;5.33;5.13;;;;;;;;;;4889779;29;20562;-72
2023/09/17 09:15:30;;;;;;;4.87;4.87;;;;;;;;;;4891641;29;20436;-71
2023/09/17 09:17:56;;;;;;;4.60;4.50;;;;;;;;;;4891825;29;20531;-73
2023/09/17 09:20:23;;;;;;;4.73;4.57;;;;;;;;;;4891464;29;20718;-71
2023/09/17 09:22:49;;;;;;;4.60;4.53;;;;;;;;;;4891352;29;20524;-72
2023/09/17 09:25:15;;;;;;;4.33;4.07;;;;;;;;;;4891217;29;20484;-72
2023/09/17 09:27:42;;;;;;;4.73;4.63;;;;;;;;;;4891205;29;20814;-72
2023/09/17 09:30:14;;;;;;;5.20;5.00;;;;;;;;;;4891374;29;20448;-72
2023/09/17 09:32:41;;;;;;;5.13;4.80;;;;;;;;;;4900903;29;20508;-72
2023/09/17 09:35:08;;;;;;;5.47;5.37;;;;;;;;;;4891417;29;20444;-73
2023/09/17 09:37:37;;;;;;;4.93;4.73;;;;;;;;;;4900995;29;20457;-72
2023/09/17 09:40:05;;;;;;;4.47;4.37;;;;;;;;;;4889525;29;20449;-72
2023/09/17 09:42:31;;;;;;;4.70;4.57;;;;;;;;;;4886938;29;20674;-72
2023/09/17 09:44:57;;;;;;;4.60;4.40;;;;;;;;;;4890930;29;20806;-72
2023/09/17 09:47:23;;;;;;;4.93;4.73;;;;;;;;;;4889308;29;20476;-73
2023/09/17 09:49:50;;;;;;;4.77;4.57;;;;;;;;;;4890227;29;20980;-72
2023/09/17 09:52:18;;;;;;;5.10;4.90;;;;;;;;;;4893807;29;20505;-73
2023/09/17 09:54:44;;;;;;;4.90;4.53;;;;;;;;;;4890155;29;20428;-72
2023/09/17 09:57:15;;;;;;;5.00;4.80;;;;;;;;;;4889467;29;20460;-72
2023/09/17 09:59:44;;;;;;;4.73;4.63;;;;;;;;;;4889554;29;20876;-72
2023/09/17 10:02:12;;;;;;;5.33;5.23;;;;;;;;;;4889154;29;20483;-73
2023/09/17 10:04:38;;;;;;;4.87;4.73;;;;;;;;;;4889607;29;20576;-73
2023/09/17 10:07:04;;;;;;;5.47;5.27;;;;;;;;;;4888167;29;20659;-72
2023/09/17 10:09:31;;;;;;;5.47;5.30;;;;;;;;;;4884760;29;20524;-73
2023/09/17 10:11:58;;;;;;;5.73;5.53;;;;;;;;;;4885859;29;20613;-72
2023/09/17 10:14:25;;;;;;;5.53;5.23;;;;;;;;;;4879247;29;20652;-72
2023/09/17 10:16:52;;;;;;;6.33;6.13;;;;;;;;;;4880937;29;20543;-73
2023/09/17 10:19:20;;;;;;;6.37;6.17;;;;;;;;;;4883840;29;20472;-73
2023/09/17 10:21:46;;;;;;;6.30;6.10;;;;;;;;;;4880894;29;21000;-73
2023/09/17 10:24:13;;;;;;;5.77;5.60;;;;;;;;;;4880302;29;20851;-73
2023/09/17 10:26:42;;;;;;;4.33;4.10;;;;;;;;;;4879974;29;20682;-73
2023/09/17 10:29:09;;;;;;;4.30;4.20;;;;;;;;;;4879731;29;20544;-73
2023/09/17 10:31:36;;;;;;;4.73;4.47;;;;;;;;;;4885340;29;20799;-71
2023/09/17 10:34:03;;;;;;;3.87;3.67;;;;;;;;;;4880888;29;20874;-73
2023/09/17 10:36:31;;;;;;;3.83;3.83;;;;;;;;;;4881538;29;20466;-73
2023/09/17 10:38:59;;;;;;;3.80;3.80;;;;;;;;;;4882554;29;21041;-73
2023/09/17 10:41:28;;;;;;;4.30;4.10;;;;;;;;;;4882460;29;21151;-73
2023/09/17 10:43:54;;;;;;;4.10;4.00;;;;;;;;;;4878814;29;20802;-73
2023/09/17 10:46:21;;;;;;;4.47;4.27;;;;;;;;;;4881760;29;20445;-72
2023/09/17 10:48:48;;;;;;;3.40;3.20;;;;;;;;;;4880420;29;20894;-72
2023/09/17 10:51:14;;;;;;;3.87;3.77;;;;;;;;;;4878646;29;20442;-73
2023/09/17 10:53:40;;;;;;;4.43;4.23;;;;;;;;;;4878517;29;20459;-73
2023/09/17 10:56:10;;;;;;;4.00;3.87;;;;;;;;;;4882484;29;20441;-73
2023/09/17 10:58:38;;;;;;;4.43;4.33;;;;;;;;;;4888608;29;20441;-73
2023/09/17 11:01:05;;;;;;;4.50;4.40;;;;;;;;;;4885368;29;20500;-75
2023/09/17 11:03:33;;;;;;;4.10;3.93;;;;;;;;;;4887706;29;20433;-73
2023/09/17 11:06:00;;;;;;;3.90;3.77;;;;;;;;;;4888098;29;20432;-74
2023/09/17 11:08:26;;;;;;;4.03;3.93;;;;;;;;;;4887858;29;20425;-73
2023/09/17 11:10:52;;;;;;;3.87;3.77;;;;;;;;;;4886163;29;20435;-74
2023/09/17 11:13:20;;;;;;;3.80;3.70;;;;;;;;;;4888210;29;20527;-73
2023/09/17 11:15:48;;;;;;;4.10;4.00;;;;;;;;;;4884601;29;20475;-73
2023/09/17 11:18:15;;;;;;;3.87;3.77;;;;;;;;;;4888255;29;20433;-73
2023/09/17 11:21:04;;;;;;;3.70;3.70;;;;;;;;;;4887711;29;20445;-74
2023/09/17 11:23:39;;;;;;;4.23;4.13;;;;;;;;;;4887653;29;20421;-73
2023/09/17 11:26:06;;;;;;;3.70;3.70;;;;;;;;;;4884936;29;20436;-73
2023/09/17 11:28:39;;;;;;;3.63;3.60;;;;;;;;;;4887788;29;20856;-75
2023/09/17 11:31:09;;;;;;;4.83;4.40;;;;;;;;;;4887905;29;20447;-73
2023/09/17 11:33:37;;;;;;;3.60;3.60;;;;;;;;;;4888174;29;20441;-73
2023/09/17 11:36:04;;;;;;;3.60;3.50;;;;;;;;;;4887939;29;20440;-73
2023/09/17 11:38:30;;;;;;;4.27;4.10;;;;;;;;;;4887488;29;20826;-74
2023/09/17 11:41:02;;;;;;;4.10;4.00;;;;;;;;;;4884755;29;20564;-73
2023/09/17 11:43:28;;;;;;;4.30;4.20;;;;;;;;;;4885469;29;20604;-73
2023/09/17 11:45:54;;;;;;;4.40;4.27;;;;;;;;;;4885981;29;20441;-73
2023/09/17 11:48:21;;;;;;;4.07;3.90;;;;;;;;;;4887113;29;20452;-74
2023/09/17 11:50:47;;;;;;;4.20;4.10;;;;;;;;;;4887232;29;20480;-73
2023/09/17 11:53:15;;;;;;;4.33;4.23;;;;;;;;;;4887309;29;20432;-73
2023/09/17 11:55:41;;;;;;;4.37;4.27;;;;;;;;;;4886023;29;20436;-73
2023/09/17 11:58:14;;;;;;;5.07;4.97;;;;;;;;;;4886077;29;20421;-72
2023/09/17 12:00:40;;;;;;;4.90;4.70;;;;;;;;;;4886628;29;20572;-72
2023/09/17 12:03:06;;;;;;;4.87;4.77;;;;;;;;;;4885683;29;20508;-72
2023/09/17 12:05:33;;;;;;;4.80;4.50;;;;;;;;;;4887116;29;20444;-73
2023/09/17 12:08:01;;;;;;;4.47;4.30;;;;;;;;;;4886488;29;20440;-73
2023/09/17 12:10:28;;;;;;;4.10;4.00;;;;;;;;;;4884773;29;20452;-73
2023/09/17 12:12:55;;;;;;;3.83;3.73;;;;;;;;;;4887488;29;20679;-73
2023/09/17 12:15:21;;;;;;;4.47;4.37;;;;;;;;;;4884529;29;20451;-73
2023/09/17 12:17:47;;;;;;;4.00;4.00;;;;;;;;;;4893940;29;20524;-72
2023/09/17 12:20:33;;;;;;;4.10;4.10;;;;;;;;;;4887508;29;20485;-73
2023/09/17 12:23:04;;;;;;;4.83;4.53;;;;;;;;;;4881832;29;20447;-73
2023/09/17 12:25:41;;;;;;;5.17;4.87;;;;;;;;;;4886969;29;20440;-74
2023/09/17 12:28:07;;;;;;;4.10;4.00;;;;;;;;;;4881287;29;20436;-74
2023/09/17 12:30:33;;;;;;;4.43;4.33;;;;;;;;;;4887213;29;20840;-73
2023/09/17 12:32:59;;;;;;;3.70;3.47;;;;;;;;;;4887716;29;20928;-73
2023/09/17 12:35:25;;;;;;;3.60;3.40;;;;;;;;;;4887284;29;20866;-73
2023/09/17 12:37:51;;;;;;;4.43;4.30;;;;;;;;;;4887416;29;20928;-73
2023/09/17 12:40:17;;;;;;;3.30;3.30;;;;;;;;;;4885555;29;20445;-73
2023/09/17 12:42:43;;;;;;;4.10;4.00;;;;;;;;;;4870070;29;20574;-73
2023/09/17 12:45:09;;;;;;;3.43;3.43;;;;;;;;;;4877110;29;20512;-73
2023/09/17 12:47:35;;;;;;;3.40;3.40;;;;;;;;;;4882819;29;20532;-73
2023/09/17 12:50:04;;;;;;;3.43;3.43;;;;;;;;;;4881621;29;20843;-73
2023/09/17 12:52:30;;;;;;;3.83;3.63;;;;;;;;;;4878721;29;20964;-73
2023/09/17 12:55:00;;;;;;;3.50;3.40;;;;;;;;;;4878430;29;20820;-80
2023/09/17 12:57:27;;;;;;;3.97;3.87;;;;;;;;;;4883873;29;20451;-79
2023/09/17 12:59:54;;;;;;;3.83;3.73;;;;;;;;;;4880597;29;20468;-78
2023/09/17 13:02:28;;;;;;;4.07;4.00;;;;;;;;;;4875861;29;20484;-77
2023/09/17 13:04:54;;;;;;;4.30;4.30;;;;;;;;;;4881219;29;20456;-79
2023/09/17 13:07:21;;;;;;;3.17;3.17;;;;;;;;;;4880115;29;20447;-79
2023/09/17 13:09:47;;;;;;;3.40;3.40;;;;;;;;;;4875774;29;20444;-79
2023/09/17 13:12:20;;;;;;;3.87;3.87;;;;;;;;;;4880463;29;20798;-80
2023/09/17 13:14:50;;;;;;;3.50;3.40;;;;;;;;;;4885904;29;20671;-80
2023/09/17 13:17:16;;;;;;;3.60;3.60;;;;;;;;;;4879050;29;20495;-79
2023/09/17 13:19:42;;;;;;;3.43;3.33;;;;;;;;;;4880887;29;20943;-79
2023/09/17 13:22:10;;;;;;;4.10;4.00;;;;;;;;;;4879461;29;20567;-73
2023/09/17 13:24:36;;;;;;;3.60;3.57;;;;;;;;;;4894252;29;20453;-73
2023/09/17 13:27:05;;;;;;;3.53;3.50;;;;;;;;;;4884143;29;20452;-73
2023/09/17 13:29:36;;;;;;;4.17;4.07;;;;;;;;;;4885778;29;20505;-73
2023/09/17 13:32:03;;;;;;;4.37;4.27;;;;;;;;;;4888807;29;20532;-73
2023/09/17 13:34:29;;;;;;;4.20;4.10;;;;;;;;;;4892329;29;20440;-73
2023/09/17 13:36:57;;;;;;;4.50;4.30;;;;;;;;;;4888664;29;20428;-73
2023/09/17 13:39:23;;;;;;;3.73;3.73;;;;;;;;;;4880492;29;20476;-73
2023/09/17 13:41:49;;;;;;;3.47;3.47;;;;;;;;;;4879375;29;20599;-73
2023/09/17 13:44:15;;;;;;;3.83;3.73;;;;;;;;;;4886466;29;20476;-73
2023/09/17 13:46:47;;;;;;;4.47;4.37;;;;;;;;;;4881513;29;20817;-74
2023/09/17 13:49:13;;;;;;;3.40;3.30;;;;;;;;;;4883944;29;20958;-71
2023/09/17 13:51:39;;;;;;;3.67;3.57;;;;;;;;;;4873879;29;20605;-72
2023/09/17 13:54:05;;;;;;;4.00;3.87;;;;;;;;;;4879133;29;21026;-72
2023/09/17 13:56:31;;;;;;;4.30;4.20;;;;;;;;;;4885263;29;20440;-72
2023/09/17 13:58:58;;;;;;;3.97;3.97;;;;;;;;;;4882582;29;20508;-73
2023/09/17 14:01:24;;;;;;;4.20;4.10;;;;;;;;;;4881029;29;20464;-73
2023/09/17 14:03:49;;;;;;;4.07;4.07;;;;;;;;;;4881340;29;20447;-73
2023/09/17 14:06:16;;;;;;;5.90;5.80;;;;;;;;;;4879160;29;20448;-71
2023/09/17 14:08:41;;;;;;;4.27;4.07;;;;;;;;;;4881187;29;20809;-71
2023/09/17 14:11:08;;;;;;;5.70;5.60;;;;;;;;;;4878021;29;20675;-71
2023/09/17 14:13:35;;;;;;;6.00;5.80;;;;;;;;;;4879668;29;20452;-72
2023/09/17 14:16:02;;;;;;;6.97;6.77;;;;;;;;;;4884744;29;20457;-72
2023/09/17 14:18:28;;;;;;;5.07;4.73;;;;;;;;;;4879578;29;20488;-73
2023/09/17 14:20:55;;;;;;;4.57;4.50;;;;;;;;;;4878935;29;20472;-73
2023/09/17 14:23:22;;;;;;;4.70;4.60;;;;;;;;;;4875275;29;20929;-71
2023/09/17 14:25:48;;;;;;;4.67;4.57;;;;;;;;;;4873879;29;20433;-73